METAR Data
IDs: Format: Raw Decoded Include TAF

Data at: 1323 UTC 26 Feb 2021

FABL 261300Z 19004KT 110V260 9999 FEW045 27/09 Q1015 NOSIG